Time;durP1;ratioP1;P1;durP2;ratioP2;P2;SDS_P1;SDS_P2;PMS_P1;PMS_P2;Temp;Humidity;BMP_temperature;BMP_pressure;BME280_temperature;BME280_humidity;BME280_pressure;Samples;Min_cycle;Max_cycle;Signal;HPM_P1;HPM_P2
2021/08/01 00:02:12;;;;;;;8.43;3.38;;;14.50;99.90;;;;;;5076467;28;20020;-77
2021/08/01 00:04:38;;;;;;;7.90;3.08;;;14.50;99.90;;;;;;5094490;28;20035;-78
2021/08/01 00:07:07;;;;;;;11.05;3.55;;;14.50;99.90;;;;;;5076504;28;20484;-77
2021/08/01 00:09:32;;;;;;;7.05;3.83;;;14.50;99.90;;;;;;5095389;28;20024;-76
2021/08/01 00:11:58;;;;;;;10.10;4.65;;;14.50;99.90;;;;;;5075536;28;20016;-76
2021/08/01 00:14:23;;;;;;;8.40;3.50;;;14.50;99.90;;;;;;5094229;28;20024;-76
2021/08/01 00:16:49;;;;;;;8.93;3.67;;;14.60;99.90;;;;;;5075411;28;20020;-77
2021/08/01 00:19:14;;;;;;;8.95;3.97;;;14.60;99.90;;;;;;5094866;28;20621;-77
2021/08/01 00:21:40;;;;;;;7.95;3.83;;;14.70;99.90;;;;;;5077076;28;20063;-77
2021/08/01 00:24:05;;;;;;;12.75;4.45;;;14.70;99.90;;;;;;5075469;28;20488;-76
2021/08/01 00:26:31;;;;;;;11.20;3.47;;;14.70;99.90;;;;;;5094274;28;20028;-78
2021/08/01 00:28:56;;;;;;;10.50;4.00;;;14.80;99.90;;;;;;5094780;28;20024;-78
2021/08/01 00:31:22;;;;;;;8.32;3.65;;;14.80;99.90;;;;;;5076114;28;20077;-78
2021/08/01 00:33:48;;;;;;;16.65;4.38;;;14.80;99.90;;;;;;5075835;28;20051;-78
2021/08/01 00:36:14;;;;;;;9.75;4.10;;;14.90;99.90;;;;;;5075617;28;20023;-78
2021/08/01 00:38:40;;;;;;;12.80;4.78;;;14.90;99.90;;;;;;5093734;28;20050;-78
2021/08/01 00:41:05;;;;;;;11.88;3.83;;;15.00;99.90;;;;;;5077862;28;20016;-78
2021/08/01 00:43:32;;;;;;;14.93;4.03;;;15.00;99.90;;;;;;5098241;28;20076;-78
2021/08/01 00:45:59;;;;;;;10.30;3.47;;;15.10;99.90;;;;;;5079916;28;20016;-78
2021/08/01 00:48:26;;;;;;;13.85;4.40;;;15.00;99.90;;;;;;5097698;28;20060;-78
2021/08/01 00:50:53;;;;;;;11.35;4.10;;;15.00;99.90;;;;;;5079341;28;20069;-77
2021/08/01 00:53:19;;;;;;;13.85;4.07;;;15.10;99.90;;;;;;5079582;28;20362;-77
2021/08/01 00:55:45;;;;;;;12.82;3.70;;;15.00;99.90;;;;;;5099421;28;20027;-77
2021/08/01 00:58:11;;;;;;;11.07;4.55;;;15.10;99.90;;;;;;5099170;28;20028;-77
2021/08/01 01:01:18;;;;;;;9.02;3.67;;;15.10;99.90;;;;;;5098836;28;20031;-77
2021/08/01 01:03:44;;;;;;;17.08;3.80;;;15.10;99.90;;;;;;5094671;28;20029;-77
2021/08/01 01:06:18;;;;;;;15.02;3.90;;;15.10;99.90;;;;;;5097782;28;20038;-77
2021/08/01 01:08:48;;;;;;;12.43;3.97;;;15.10;99.90;;;;;;5097122;28;20020;-77
2021/08/01 01:11:16;;;;;;;14.90;4.63;;;15.10;99.90;;;;;;5097022;28;20107;-77
2021/08/01 01:13:47;;;;;;;13.02;4.90;;;15.10;99.90;;;;;;5096975;28;20016;-76
2021/08/01 01:16:13;;;;;;;13.70;4.93;;;15.00;99.90;;;;;;5078920;28;20362;-77
2021/08/01 01:18:54;;;;;;;12.70;3.95;;;15.00;99.90;;;;;;5097450;28;20020;-77
2021/08/01 01:21:26;;;;;;;10.77;3.47;;;15.00;99.90;;;;;;5098483;28;20469;-77
2021/08/01 01:24:00;;;;;;;11.27;3.65;;;15.00;99.90;;;;;;5096792;28;20078;-76
2021/08/01 01:26:50;;;;;;;11.05;3.88;;;14.90;99.90;;;;;;5096875;28;20485;-76
2021/08/01 01:29:33;;;;;;;12.90;3.63;;;14.90;99.90;;;;;;5078401;28;20034;-76
2021/08/01 01:32:02;;;;;;;13.93;4.05;;;14.90;99.90;;;;;;5078476;28;20024;-76
2021/08/01 01:34:44;;;;;;;11.45;4.32;;;14.90;99.90;;;;;;5096879;28;20016;-76
2021/08/01 01:37:13;;;;;;;13.95;4.15;;;14.90;99.90;;;;;;5097078;28;20052;-76
2021/08/01 01:39:41;;;;;;;17.33;5.20;;;14.90;99.90;;;;;;5078172;28;20070;-76
2021/08/01 01:42:10;;;;;;;12.70;4.97;;;14.90;99.90;;;;;;5096634;28;20024;-76
2021/08/01 01:44:37;;;;;;;17.83;4.82;;;14.90;99.90;;;;;;5096343;28;20116;-76
2021/08/01 01:47:04;;;;;;;14.20;5.13;;;14.90;99.90;;;;;;5078409;28;20397;-76
2021/08/01 01:49:35;;;;;;;12.27;4.80;;;14.90;99.90;;;;;;5096314;28;20024;-76
2021/08/01 01:52:01;;;;;;;13.15;4.93;;;14.90;99.90;;;;;;5077999;28;20036;-76
2021/08/01 01:54:27;;;;;;;12.38;5.40;;;14.90;99.90;;;;;;5096161;28;20103;-76
2021/08/01 01:56:54;;;;;;;11.18;4.90;;;14.90;99.90;;;;;;5096393;28;20024;-76
2021/08/01 01:59:19;;;;;;;19.20;5.90;;;15.00;99.90;;;;;;5096616;28;20020;-76
2021/08/01 02:01:45;;;;;;;18.10;4.82;;;15.00;99.90;;;;;;5077802;28;20039;-76
2021/08/01 02:04:10;;;;;;;15.82;5.47;;;15.00;99.90;;;;;;5096820;28;20599;-78
2021/08/01 02:06:36;;;;;;;16.42;4.85;;;15.00;99.90;;;;;;5096550;28;20032;-76
2021/08/01 02:09:34;;;;;;;19.33;5.53;;;15.00;99.90;;;;;;5077688;28;20020;-76
2021/08/01 02:12:24;;;;;;;18.42;5.88;;;15.10;99.90;;;;;;5034323;28;20028;-76
2021/08/01 02:15:04;;;;;;;26.48;6.15;;;15.10;99.90;;;;;;5096582;28;20028;-80
2021/08/01 02:17:42;;;;;;;17.60;5.43;;;15.10;99.90;;;;;;5078497;28;20013;-80
2021/08/01 02:20:10;;;;;;;21.63;6.53;;;15.10;99.90;;;;;;5078520;28;20111;-80
2021/08/01 02:22:36;;;;;;;16.93;5.40;;;15.20;99.90;;;;;;5078797;28;20020;-77
2021/08/01 02:25:03;;;;;;;12.55;5.05;;;15.20;99.90;;;;;;5097389;28;20269;-76
2021/08/01 02:27:33;;;;;;;12.35;4.90;;;15.20;99.90;;;;;;5095685;28;20434;-76
2021/08/01 02:30:01;;;;;;;17.65;5.63;;;15.20;99.90;;;;;;5077199;28;20024;-76
2021/08/01 02:32:28;;;;;;;13.80;4.85;;;15.30;99.90;;;;;;5095468;28;20371;-76
2021/08/01 02:34:55;;;;;;;15.23;4.43;;;15.30;99.90;;;;;;5096660;28;20020;-77
2021/08/01 02:37:22;;;;;;;14.35;4.15;;;15.40;99.90;;;;;;5096762;28;20016;-77
2021/08/01 02:39:48;;;;;;;9.20;3.90;;;15.40;99.90;;;;;;5095752;28;20401;-77
2021/08/01 02:42:15;;;;;;;21.08;4.90;;;15.40;99.90;;;;;;5077537;28;20024;-77
2021/08/01 02:44:43;;;;;;;20.08;5.18;;;15.40;99.90;;;;;;5095994;28;20024;-78
2021/08/01 02:47:13;;;;;;;9.65;3.78;;;15.50;99.90;;;;;;5096188;28;20057;-78
2021/08/01 02:49:43;;;;;;;14.85;4.07;;;15.50;99.90;;;;;;5077350;28;20031;-78
2021/08/01 02:52:15;;;;;;;15.60;4.32;;;15.50;99.90;;;;;;5077421;28;20020;-76
2021/08/01 02:54:43;;;;;;;11.00;4.45;;;15.50;99.90;;;;;;5095295;28;20461;-76
2021/08/01 02:57:12;;;;;;;11.77;4.07;;;15.50;99.90;;;;;;5094966;28;20489;-79
2021/08/01 02:59:39;;;;;;;15.45;5.18;;;15.50;99.90;;;;;;5076744;28;20031;-76
2021/08/01 03:02:08;;;;;;;11.32;4.57;;;15.60;99.90;;;;;;5094915;28;20027;-76
2021/08/01 03:04:39;;;;;;;12.27;4.47;;;15.60;99.90;;;;;;5076193;28;20397;-76
2021/08/01 03:07:10;;;;;;;14.68;4.38;;;15.60;99.90;;;;;;5095043;28;20099;-77
2021/08/01 03:09:35;;;;;;;12.52;4.93;;;15.50;99.90;;;;;;5094740;28;20374;-77
2021/08/01 03:12:12;;;;;;;12.88;5.15;;;15.50;99.90;;;;;;5078270;28;20028;-77
2021/08/01 03:14:38;;;;;;;11.18;4.20;;;15.50;99.90;;;;;;5078267;28;20020;-77
2021/08/01 03:17:04;;;;;;;17.10;5.00;;;15.50;99.90;;;;;;5095796;28;20412;-77
2021/08/01 03:19:34;;;;;;;9.55;5.00;;;15.40;99.90;;;;;;5095573;28;20054;-78
2021/08/01 03:21:59;;;;;;;13.65;5.88;;;15.40;99.90;;;;;;5096397;28;20373;-77
2021/08/01 03:24:25;;;;;;;8.88;4.75;;;15.50;99.90;;;;;;5095365;28;20028;-77
2021/08/01 03:26:50;;;;;;;12.45;4.97;;;15.50;99.90;;;;;;5095192;28;20028;-77
2021/08/01 03:29:16;;;;;;;12.05;4.35;;;15.40;99.90;;;;;;5094620;28;20039;-80
2021/08/01 03:31:42;;;;;;;10.20;4.47;;;15.40;99.90;;;;;;5095523;28;20481;-80
2021/08/01 03:34:07;;;;;;;10.20;5.20;;;15.40;99.90;;;;;;5076492;28;20016;-80
2021/08/01 03:36:33;;;;;;;12.32;4.13;;;15.40;99.90;;;;;;5076293;28;20077;-76
2021/08/01 03:38:59;;;;;;;8.80;3.78;;;15.40;99.90;;;;;;5076194;28;20393;-76
2021/08/01 03:41:24;;;;;;;12.00;4.60;;;15.40;99.90;;;;;;5076221;28;20024;-76
2021/08/01 03:43:50;;;;;;;13.02;4.95;;;15.40;99.90;;;;;;5094282;28;20035;-76
2021/08/01 03:46:15;;;;;;;12.75;4.30;;;15.40;99.90;;;;;;5075827;28;20032;-76
2021/08/01 03:48:41;;;;;;;12.98;4.00;;;15.40;99.90;;;;;;5075908;28;20070;-78
2021/08/01 03:51:06;;;;;;;12.48;4.38;;;15.40;99.90;;;;;;5076675;28;20069;-78
2021/08/01 03:53:35;;;;;;;11.45;4.28;;;15.30;99.90;;;;;;5075812;28;20016;-76
2021/08/01 03:56:04;;;;;;;9.15;3.60;;;15.40;99.90;;;;;;5093872;28;20377;-78
2021/08/01 03:58:29;;;;;;;;;;;15.30;99.90;;;;;;5076731;28;20051;-76
2021/08/01 04:00:55;;;;;;;12.55;2.67;;;15.40;99.90;;;;;;5093654;28;20269;-76
2021/08/01 04:03:21;;;;;;;15.18;3.60;;;15.30;99.90;;;;;;5093939;28;20013;-76
2021/08/01 04:05:46;;;;;;;14.57;5.03;;;15.30;99.90;;;;;;5076611;28;20020;-78
2021/08/01 04:08:12;;;;;;;9.55;3.67;;;15.30;99.90;;;;;;5094701;28;20016;-77
2021/08/01 04:10:37;;;;;;;12.93;3.83;;;15.30;99.90;;;;;;5077248;28;20020;-77
2021/08/01 04:13:03;;;;;;;10.15;3.15;;;15.30;99.90;;;;;;5094862;28;20020;-77
2021/08/01 04:15:29;;;;;;;13.35;4.20;;;15.30;99.90;;;;;;5075054;28;20077;-77
2021/08/01 04:17:54;;;;;;;9.05;3.47;;;15.30;99.90;;;;;;5093696;28;20069;-77
2021/08/01 04:20:20;;;;;;;7.97;3.28;;;15.30;99.90;;;;;;5093956;28;20047;-77
2021/08/01 04:22:45;;;;;;;20.10;3.38;;;15.30;99.90;;;;;;5094147;28;20077;-78
2021/08/01 04:25:12;;;;;;;13.82;3.75;;;15.30;99.90;;;;;;5076251;28;20028;-77
2021/08/01 04:27:37;;;;;;;12.80;3.95;;;15.30;99.90;;;;;;5094378;28;20047;-77
2021/08/01 04:30:04;;;;;;;10.30;4.00;;;15.30;99.90;;;;;;5093537;28;20071;-77
2021/08/01 04:32:29;;;;;;;11.20;3.35;;;15.30;99.90;;;;;;5093771;28;20075;-77
2021/08/01 04:34:55;;;;;;;14.32;3.83;;;15.30;99.90;;;;;;5075673;28;20469;-77
2021/08/01 04:37:20;;;;;;;14.43;3.70;;;15.30;99.90;;;;;;5076193;28;20020;-77
2021/08/01 04:39:46;;;;;;;15.15;4.20;;;15.30;99.90;;;;;;5093758;28;20068;-76
2021/08/01 04:42:11;;;;;;;12.13;4.00;;;15.20;99.90;;;;;;5093286;28;20029;-76
2021/08/01 04:44:37;;;;;;;12.52;4.38;;;15.20;99.90;;;;;;5075226;28;20396;-76
2021/08/01 04:47:02;;;;;;;14.38;4.85;;;15.20;99.90;;;;;;5075156;28;20031;-76
2021/08/01 04:49:28;;;;;;;15.55;3.97;;;15.30;99.90;;;;;;5075040;28;20071;-75
2021/08/01 04:51:53;;;;;;;12.43;4.68;;;15.30;99.90;;;;;;5093174;28;20020;-76
2021/08/01 04:54:19;;;;;;;15.35;5.47;;;15.30;99.90;;;;;;5075085;28;20024;-76
2021/08/01 04:56:45;;;;;;;16.90;4.78;;;15.40;99.90;;;;;;5093102;28;20119;-76
2021/08/01 04:59:12;;;;;;;16.25;5.00;;;15.30;99.90;;;;;;5093460;28;20020;-76
2021/08/01 05:01:38;;;;;;;15.52;5.18;;;15.40;99.90;;;;;;5074883;28;20016;-76
2021/08/01 05:04:04;;;;;;;11.95;4.75;;;15.40;99.90;;;;;;5075060;28;20107;-76
2021/08/01 05:06:32;;;;;;;14.32;4.30;;;15.40;99.90;;;;;;5093288;28;20020;-76
2021/08/01 05:08:58;;;;;;;15.05;5.57;;;15.40;99.90;;;;;;5075288;28;20058;-78
2021/08/01 05:11:23;;;;;;;14.07;5.20;;;15.50;99.90;;;;;;5093690;28;20048;-77
2021/08/01 05:13:49;;;;;;;16.15;5.05;;;15.60;99.90;;;;;;5093091;28;20099;-77
2021/08/01 05:16:16;;;;;;;16.60;6.32;;;15.60;99.90;;;;;;5093579;28;20026;-77
2021/08/01 05:18:42;;;;;;;17.65;5.57;;;15.60;99.90;;;;;;5093746;28;20400;-77
2021/08/01 05:21:08;;;;;;;16.98;4.90;;;15.60;99.90;;;;;;5093294;28;20095;-78
2021/08/01 05:23:33;;;;;;;17.73;6.30;;;15.60;99.90;;;;;;5093466;28;20028;-77
2021/08/01 05:25:59;;;;;;;13.52;5.40;;;15.70;99.90;;;;;;5075170;28;20035;-77
2021/08/01 05:28:27;;;;;;;14.57;4.95;;;15.80;99.90;;;;;;5078974;28;20036;-77
2021/08/01 05:30:53;;;;;;;18.00;4.82;;;15.80;99.90;;;;;;5078935;28;20016;-77
2021/08/01 05:33:18;;;;;;;17.33;5.72;;;15.80;99.90;;;;;;5097270;28;20024;-77
2021/08/01 05:35:44;;;;;;;12.57;5.13;;;15.90;99.90;;;;;;5097226;28;20030;-77
2021/08/01 05:38:09;;;;;;;16.67;6.35;;;15.90;99.90;;;;;;5078630;28;20489;-77
2021/08/01 05:40:35;;;;;;;16.88;6.88;;;16.00;99.90;;;;;;5078587;28;20032;-77
2021/08/01 05:43:01;;;;;;;20.27;6.68;;;16.00;99.90;;;;;;5078627;28;20028;-76
2021/08/01 05:45:28;;;;;;;20.40;7.35;;;16.00;99.90;;;;;;5096610;28;20408;-76
2021/08/01 05:47:54;;;;;;;32.25;6.53;;;16.10;99.90;;;;;;5096455;28;20044;-75
2021/08/01 05:50:21;;;;;;;20.25;6.68;;;16.10;99.90;;;;;;5077990;28;20465;-75
2021/08/01 05:52:46;;;;;;;19.40;6.68;;;16.20;99.90;;;;;;5096272;28;20016;-76
2021/08/01 05:55:12;;;;;;;18.15;7.93;;;16.20;99.90;;;;;;5078024;28;20023;-76
2021/08/01 05:57:38;;;;;;;26.23;8.15;;;16.30;99.90;;;;;;5078260;28;20366;-77
2021/08/01 06:00:05;;;;;;;18.15;7.80;;;16.30;99.90;;;;;;5096743;28;20019;-78
2021/08/01 06:02:31;;;;;;;15.70;7.70;;;16.30;99.90;;;;;;5078129;28;20506;-78
2021/08/01 06:04:56;;;;;;;26.98;8.20;;;16.30;99.90;;;;;;5096450;28;20136;-76
2021/08/01 06:07:22;;;;;;;29.70;9.43;;;16.20;99.90;;;;;;5114154;22;20489;-77
2021/08/01 06:09:47;;;;;;;21.80;8.40;;;16.20;99.90;;;;;;5095505;28;20066;-77
2021/08/01 06:12:16;;;;;;;20.75;8.57;;;16.30;99.90;;;;;;5097239;28;20024;-77
2021/08/01 06:14:42;;;;;;;;;;;16.30;99.90;;;;;;5096871;28;20373;-77
2021/08/01 06:17:09;;;;;;;16.65;8.00;;;16.20;99.90;;;;;;5096193;28;19991;-77
2021/08/01 06:19:34;;;;;;;20.35;8.93;;;16.20;99.90;;;;;;5096409;28;20020;-77
2021/08/01 06:22:00;;;;;;;25.42;9.25;;;16.10;99.90;;;;;;5078082;28;20112;-77
2021/08/01 06:24:25;;;;;;;24.13;8.45;;;16.10;99.90;;;;;;5096714;28;20028;-77
2021/08/01 06:26:51;;;;;;;22.17;9.07;;;16.20;99.90;;;;;;5078686;28;20048;-77
2021/08/01 06:29:16;;;;;;;22.90;8.98;;;16.20;99.90;;;;;;5095563;28;20071;-76
2021/08/01 06:31:42;;;;;;;30.42;10.10;;;16.30;99.90;;;;;;5095538;28;20017;-75
2021/08/01 06:34:08;;;;;;;23.13;10.50;;;16.20;99.90;;;;;;5096056;28;20495;-77
2021/08/01 06:36:33;;;;;;;28.30;9.98;;;16.20;99.90;;;;;;5096291;28;20028;-77
2021/08/01 06:38:59;;;;;;;26.88;10.40;;;16.10;99.90;;;;;;5078242;28;20024;-77
2021/08/01 06:41:27;;;;;;;24.05;9.88;;;16.20;99.90;;;;;;5096092;28;20149;-78
2021/08/01 06:43:53;;;;;;;37.60;10.77;;;16.30;99.90;;;;;;5077741;28;20024;-79
2021/08/01 06:46:18;;;;;;;27.35;10.88;;;16.40;99.90;;;;;;5078603;28;20030;-79
2021/08/01 06:48:44;;;;;;;31.45;11.50;;;16.50;99.90;;;;;;5095558;28;20470;-75
2021/08/01 06:51:09;;;;;;;28.27;11.35;;;16.60;99.90;;;;;;5095340;28;20042;-77
2021/08/01 06:53:35;;;;;;;29.10;11.27;;;16.70;99.90;;;;;;5095438;28;20030;-77
2021/08/01 06:56:01;;;;;;;33.20;10.88;;;16.70;99.90;;;;;;5095768;28;20095;-76
2021/08/01 06:58:27;;;;;;;29.92;10.10;;;16.70;99.90;;;;;;5076749;28;20460;-76
2021/08/01 07:00:53;;;;;;;30.92;10.90;;;16.90;99.90;;;;;;5095430;28;20074;-76
2021/08/01 07:03:19;;;;;;;27.40;10.43;;;17.00;99.90;;;;;;5076681;28;20024;-76
2021/08/01 07:05:45;;;;;;;28.52;10.75;;;17.30;99.90;;;;;;5095194;28;20017;-75
2021/08/01 07:08:11;;;;;;;29.48;11.70;;;17.30;99.90;;;;;;5108208;22;20072;-77
2021/08/01 07:10:36;;;;;;;29.13;11.05;;;17.20;99.90;;;;;;5076830;28;20381;-77
2021/08/01 07:13:06;;;;;;;27.20;10.13;;;17.10;99.90;;;;;;5076746;28;20020;-77
2021/08/01 07:15:32;;;;;;;24.30;10.70;;;17.10;99.90;;;;;;5077093;28;20016;-77
2021/08/01 07:17:59;;;;;;;23.50;10.82;;;17.10;99.90;;;;;;5095110;28;20048;-77
2021/08/01 07:20:25;;;;;;;24.63;9.55;;;17.20;99.90;;;;;;5076658;28;20454;-77
2021/08/01 07:22:51;;;;;;;21.35;8.57;;;17.20;99.90;;;;;;5076711;28;20020;-77
2021/08/01 07:25:17;;;;;;;21.70;9.68;;;17.20;99.90;;;;;;5094892;28;20043;-77
2021/08/01 07:27:43;;;;;;;24.63;9.88;;;17.20;99.90;;;;;;5095320;28;20103;-77
2021/08/01 07:30:09;;;;;;;25.30;8.85;;;17.30;99.90;;;;;;5076798;28;20066;-77
2021/08/01 07:32:35;;;;;;;23.58;9.98;;;17.30;99.90;;;;;;5094941;28;20425;-77
2021/08/01 07:35:01;;;;;;;22.30;7.93;;;17.40;99.90;;;;;;5095434;28;20051;-77
2021/08/01 07:37:26;;;;;;;26.38;10.77;;;17.60;99.90;;;;;;5077080;28;20012;-77
2021/08/01 07:39:52;;;;;;;28.15;11.02;;;17.70;99.90;;;;;;5076700;28;20469;-79
2021/08/01 07:42:17;;;;;;;19.85;8.18;;;17.70;99.90;;;;;;5095006;28;20355;-77
2021/08/01 07:44:46;;;;;;;19.15;7.80;;;17.90;99.90;;;;;;5076398;28;20401;-77
2021/08/01 07:47:13;;;;;;;16.52;7.63;;;18.00;99.90;;;;;;5094427;28;20016;-77
2021/08/01 07:49:39;;;;;;;21.83;7.80;;;18.00;99.90;;;;;;5075692;28;20086;-76
2021/08/01 07:52:04;;;;;;;17.90;7.65;;;18.10;99.90;;;;;;5075930;28;20572;-77
2021/08/01 07:54:30;;;;;;;17.10;7.18;;;18.10;99.90;;;;;;5094545;28;20020;-76
2021/08/01 07:56:56;;;;;;;15.18;6.15;;;18.20;99.90;;;;;;5093886;28;20115;-79
2021/08/01 07:59:21;;;;;;;15.05;7.03;;;18.50;99.90;;;;;;5076342;28;20024;-79
2021/08/01 08:01:47;;;;;;;11.88;5.95;;;18.60;99.90;;;;;;5076167;28;20050;-79
2021/08/01 08:04:12;;;;;;;15.95;6.90;;;18.60;99.90;;;;;;5094301;28;20024;-79
2021/08/01 08:06:38;;;;;;;15.10;5.60;;;18.90;99.90;;;;;;5075947;28;20026;-79
2021/08/01 08:09:05;;;;;;;12.77;5.65;;;19.20;99.90;;;;;;5075770;28;20089;-75
2021/08/01 08:11:30;;;;;;;12.07;5.28;;;20.50;99.90;;;;;;5075651;28;20478;-77
2021/08/01 08:13:56;;;;;;;15.15;5.88;;;19.30;99.90;;;;;;5093811;28;20066;-77
2021/08/01 08:16:22;;;;;;;16.48;7.07;;;19.20;99.90;;;;;;5075687;28;20024;-77
2021/08/01 08:18:50;;;;;;;15.23;6.70;;;19.10;99.90;;;;;;5075638;28;20027;-77
2021/08/01 08:21:16;;;;;;;13.03;5.20;;;19.10;99.90;;;;;;5094123;28;20028;-77
2021/08/01 08:23:42;;;;;;;17.10;5.68;;;19.20;99.90;;;;;;5075742;28;20028;-77
2021/08/01 08:26:07;;;;;;;19.98;5.07;;;19.20;99.90;;;;;;5094255;28;20035;-77
2021/08/01 08:28:33;;;;;;;10.70;4.57;;;19.30;99.90;;;;;;5075886;28;20020;-77
2021/08/01 08:30:59;;;;;;;10.30;4.53;;;19.60;99.90;;;;;;5094263;28;20066;-77
2021/08/01 08:33:25;;;;;;;9.30;4.50;;;19.90;99.90;;;;;;5094039;28;20027;-77
2021/08/01 08:35:50;;;;;;;13.40;4.85;;;20.10;99.90;;;;;;5093754;28;20017;-77
2021/08/01 08:38:16;;;;;;;9.75;4.50;;;20.30;99.90;;;;;;5093891;28;20514;-76
2021/08/01 08:40:41;;;;;;;11.05;3.80;;;20.50;99.90;;;;;;5093365;28;20023;-76
2021/08/01 08:43:08;;;;;;;8.07;3.35;;;20.30;99.90;;;;;;5075329;28;20020;-76
2021/08/01 08:45:34;;;;;;;4.40;2.35;;;20.30;99.90;;;;;;5093435;28;20389;-75
2021/08/01 08:48:00;;;;;;;8.32;2.88;;;20.00;99.90;;;;;;5075071;28;20081;-75
2021/08/01 08:50:25;;;;;;;8.07;3.38;;;19.90;99.90;;;;;;5093522;28;20024;-76
2021/08/01 08:52:57;;;;;;;8.60;3.30;;;19.80;99.90;;;;;;5093804;28;20016;-75
2021/08/01 08:55:28;;;;;;;8.15;3.63;;;19.70;99.90;;;;;;5093826;28;20031;-76
2021/08/01 08:58:00;;;;;;;8.23;3.35;;;19.40;99.90;;;;;;5093589;28;20024;-75
2021/08/01 09:00:27;;;;;;;8.73;3.65;;;19.20;99.90;;;;;;5093078;28;20401;-75
2021/08/01 09:02:53;;;;;;;10.13;4.32;;;19.00;99.90;;;;;;5078134;28;20016;-75
2021/08/01 09:05:18;;;;;;;8.43;3.72;;;18.80;99.90;;;;;;5097639;28;20024;-75
2021/08/01 09:07:44;;;;;;;9.65;4.45;;;18.50;99.90;;;;;;5097540;28;20115;-77
2021/08/01 09:10:11;;;;;;;5.88;3.65;;;18.40;99.90;;;;;;5097202;28;20023;-77
2021/08/01 09:12:47;;;;;;;7.68;3.67;;;18.20;99.90;;;;;;5097252;28;20031;-77
2021/08/01 09:15:17;;;;;;;7.93;3.95;;;18.20;99.90;;;;;;5097841;28;20020;-79
2021/08/01 09:17:43;;;;;;;10.27;3.75;;;18.10;99.90;;;;;;5097861;28;20032;-76
2021/08/01 09:20:19;;;;;;;6.32;3.58;;;18.10;99.90;;;;;;5096917;28;20058;-79
2021/08/01 09:23:03;;;;;;;6.57;3.53;;;18.10;99.90;;;;;;5078750;28;20429;-75
2021/08/01 09:25:43;;;;;;;10.50;4.53;;;18.10;99.90;;;;;;5096852;28;20530;-76
2021/08/01 09:28:24;;;;;;;7.00;3.83;;;18.20;99.90;;;;;;5096905;28;20377;-77
2021/08/01 09:30:59;;;;;;;8.18;3.47;;;18.40;99.90;;;;;;5096852;28;20503;-76
2021/08/01 09:33:33;;;;;;;5.90;2.53;;;18.50;99.90;;;;;;5078550;28;20020;-77
2021/08/01 09:36:09;;;;;;;4.07;2.90;;;18.60;99.90;;;;;;5097273;28;20111;-78
2021/08/01 09:38:48;;;;;;;6.93;3.00;;;18.60;99.90;;;;;;5096857;28;20488;-75
2021/08/01 09:41:41;;;;;;;3.72;2.55;;;18.60;99.90;;;;;;5096371;28;20132;-76
2021/08/01 09:44:08;;;;;;;5.40;2.95;;;18.70;99.90;;;;;;5092398;28;20035;-77
2021/08/01 09:46:43;;;;;;;4.25;2.53;;;18.80;99.90;;;;;;5096757;28;20020;-75
2021/08/01 09:49:11;;;;;;;4.85;2.25;;;18.90;99.90;;;;;;5096663;28;20119;-75
2021/08/01 09:51:41;;;;;;;4.17;2.00;;;19.10;99.90;;;;;;5096125;28;20035;-75
2021/08/01 09:54:07;;;;;;;5.32;1.50;;;19.10;99.90;;;;;;5096421;28;20103;-75
2021/08/01 09:56:32;;;;;;;1.25;0.70;;;19.10;99.90;;;;;;5077975;28;20032;-76
2021/08/01 09:58:59;;;;;;;1.73;0.80;;;19.20;99.90;;;;;;5096141;28;20073;-77
2021/08/01 10:01:25;;;;;;;2.28;0.20;;;19.40;99.90;;;;;;5077913;28;20020;-77
2021/08/01 10:03:51;;;;;;;1.40;0.13;;;19.40;99.90;;;;;;5078002;28;20088;-77
2021/08/01 10:06:21;;;;;;;0.28;0.00;;;19.50;99.90;;;;;;5096178;28;20497;-77
2021/08/01 10:08:53;;;;;;;0.40;0.10;;;19.60;99.90;;;;;;5095973;28;20031;-78
2021/08/01 10:11:25;;;;;;;0.95;0.20;;;19.90;99.90;;;;;;5096325;28;20030;-78
2021/08/01 10:13:55;;;;;;;0.20;0.00;;;20.30;99.90;;;;;;5095446;28;20113;-78
2021/08/01 10:16:22;;;;;;;0.00;0.00;;;20.80;99.90;;;;;;5096185;28;20439;-78
2021/08/01 10:18:49;;;;;;;0.35;0.10;;;21.20;99.90;;;;;;5077888;28;20024;-77
2021/08/01 10:21:23;;;;;;;0.20;0.10;;;21.40;99.90;;;;;;5096329;28;20093;-78
2021/08/01 10:23:54;;;;;;;0.40;0.00;;;21.60;99.90;;;;;;5077902;28;20024;-78
2021/08/01 10:26:23;;;;;;;0.05;0.05;;;21.60;99.90;;;;;;5078263;28;20024;-79
2021/08/01 10:28:52;;;;;;;0.17;0.00;;;21.70;99.90;;;;;;5095897;28;20085;-77
2021/08/01 10:31:27;;;;;;;0.00;0.00;;;21.70;99.90;;;;;;5095610;28;20020;-77
2021/08/01 10:34:02;;;;;;;0.10;0.00;;;21.70;99.90;;;;;;5077719;28;20027;-77
2021/08/01 10:36:30;;;;;;;0.00;0.00;;;21.50;99.90;;;;;;5077521;28;20110;-75
2021/08/01 10:39:01;;;;;;;0.22;0.00;;;21.30;99.90;;;;;;5095600;28;20023;-75
2021/08/01 10:41:34;;;;;;;0.20;0.00;;;21.30;99.90;;;;;;5077737;28;20060;-75
2021/08/01 10:44:08;;;;;;;0.57;0.00;;;21.40;99.90;;;;;;5095293;28;20039;-76
2021/08/01 10:46:35;;;;;;;0.00;0.00;;;21.60;99.90;;;;;;5077188;28;20020;-75
2021/08/01 10:49:04;;;;;;;0.10;0.00;;;21.80;99.90;;;;;;5095309;28;20023;-75
2021/08/01 10:51:30;;;;;;;1.33;0.00;;;22.00;99.90;;;;;;5095300;28;20461;-75
2021/08/01 10:54:21;;;;;;;0.65;0.10;;;22.00;99.90;;;;;;5095111;28;20024;-78
2021/08/01 10:56:48;;;;;;;1.27;0.20;;;22.10;99.90;;;;;;5077316;28;20043;-78
2021/08/01 10:59:44;;;;;;;0.88;0.25;;;22.00;99.90;;;;;;5095085;28;20016;-75
2021/08/01 11:02:36;;;;;;;0.95;0.10;;;21.90;99.90;;;;;;5094966;28;20016;-75
2021/08/01 11:05:36;;;;;;;2.78;0.55;;;22.00;99.90;;;;;;5073311;28;20047;-75
2021/08/01 11:08:03;;;;;;;9.20;4.63;;;22.30;99.90;;;;;;5094584;28;20094;-75
2021/08/01 11:10:29;;;;;;;10.93;6.90;;;22.60;99.90;;;;;;5094981;28;20073;-77
2021/08/01 11:12:55;;;;;;;2.08;1.38;;;22.60;99.90;;;;;;5094840;28;20020;-77
2021/08/01 11:15:45;;;;;;;2.95;1.63;;;22.30;99.90;;;;;;5095329;28;20479;-77
2021/08/01 11:18:10;;;;;;;2.17;1.20;;;21.80;99.90;;;;;;5094697;28;20032;-77
2021/08/01 11:20:36;;;;;;;2.70;0.70;;;21.40;99.90;;;;;;5094758;28;20027;-77
2021/08/01 11:23:03;;;;;;;0.90;0.20;;;20.90;99.90;;;;;;5094493;28;20051;-76
2021/08/01 11:25:31;;;;;;;1.23;0.13;;;20.70;99.90;;;;;;5094323;28;20044;-76
2021/08/01 11:28:18;;;;;;;1.00;0.37;;;20.10;99.90;;;;;;5094427;28;20099;-76
2021/08/01 11:33:36;;;;;;;0.40;0.40;;;19.50;99.90;;;;;;5095227;28;20032;-76
2021/08/01 11:38:37;;;;;;;1.48;0.30;;;19.20;99.90;;;;;;5095317;28;20039;-78
2021/08/01 11:41:03;;;;;;;0.57;0.10;;;19.10;99.90;;;;;;5076733;28;20024;-77
2021/08/01 11:43:30;;;;;;;0.57;0.20;;;19.00;99.90;;;;;;5094408;28;20026;-78
2021/08/01 11:46:06;;;;;;;0.38;0.38;;;19.20;99.90;;;;;;5094306;28;20034;-77
2021/08/01 11:48:33;;;;;;;0.40;0.10;;;19.30;99.90;;;;;;5094195;28;20056;-79
2021/08/01 11:51:05;;;;;;;0.85;0.35;;;19.40;99.90;;;;;;5075941;28;20362;-77
2021/08/01 11:53:31;;;;;;;1.15;0.47;;;19.50;99.90;;;;;;5075858;28;20012;-77
2021/08/01 11:56:00;;;;;;;1.00;0.68;;;19.60;99.90;;;;;;5094123;28;20484;-77
2021/08/01 11:58:30;;;;;;;2.33;1.05;;;19.80;99.90;;;;;;5094084;28;20128;-77
2021/08/01 12:00:58;;;;;;;2.75;0.88;;;20.00;99.90;;;;;;5093968;28;20020;-77
2021/08/01 12:03:28;;;;;;;11.07;1.30;;;20.10;99.90;;;;;;5093929;28;20020;-77
2021/08/01 12:05:53;;;;;;;1.05;0.60;;;20.30;99.90;;;;;;5075828;28;20028;-75
2021/08/01 12:08:34;;;;;;;1.75;0.70;;;20.80;99.90;;;;;;5075442;28;20503;-76
2021/08/01 12:11:10;;;;;;;1.20;0.85;;;20.60;99.90;;;;;;5093725;28;20610;-77
2021/08/01 12:13:36;;;;;;;2.00;1.13;;;20.80;99.90;;;;;;5093874;28;20469;-77
2021/08/01 12:16:01;;;;;;;0.70;0.52;;;21.00;99.90;;;;;;5075642;28;20031;-77
2021/08/01 12:18:28;;;;;;;1.02;0.70;;;21.30;99.90;;;;;;5075889;28;20128;-77
2021/08/01 12:20:53;;;;;;;1.60;1.25;;;21.50;99.90;;;;;;5093552;28;20028;-77
2021/08/01 12:23:36;;;;;;;1.10;0.75;;;21.80;99.90;;;;;;5075748;28;20038;-79
2021/08/01 12:26:01;;;;;;;1.20;0.10;;;22.20;99.90;;;;;;5075862;28;20024;-75
2021/08/01 12:28:39;;;;;;;0.82;0.10;;;22.60;99.90;;;;;;5093321;28;20028;-75
2021/08/01 12:31:05;;;;;;;1.10;0.22;;;23.10;99.90;;;;;;5093394;28;20016;-75
2021/08/01 12:33:31;;;;;;;0.73;0.08;;;23.20;99.90;;;;;;5094024;28;20035;-77
2021/08/01 12:35:57;;;;;;;0.22;0.20;;;22.90;99.90;;;;;;5092891;28;20024;-77
2021/08/01 12:38:26;;;;;;;1.35;0.40;;;22.40;99.90;;;;;;5094066;28;20085;-78
2021/08/01 12:40:52;;;;;;;0.50;0.30;;;21.90;99.90;;;;;;5093387;28;20020;-77
2021/08/01 12:43:26;;;;;;;0.63;0.20;;;21.50;99.90;;;;;;5093841;28;20469;-75
2021/08/01 12:45:52;;;;;;;0.63;0.50;;;21.30;99.90;;;;;;5093570;28;20028;-76
2021/08/01 12:48:21;;;;;;;2.00;0.30;;;21.30;99.90;;;;;;5093206;28;20477;-76
2021/08/01 12:50:57;;;;;;;0.60;0.30;;;21.60;99.90;;;;;;5075086;28;20020;-75
2021/08/01 12:53:24;;;;;;;2.20;0.28;;;21.60;99.90;;;;;;5093360;28;20023;-79